Strona główna
METAR-TAF:

METAR-TAF

Lotnisko :

Port lotniczy Dakar

Dakar, Senegal

Szerokość geograficzna: 14-44N, Długość geograficzna: 017-30W, wysokość: 27 m

Aktualna obserwacja pogody

Raport powstał 44 minut temu, godzina 23:00 UTC
Cisza
Temperatura 25°C
Wilgotność 100%
Ciśnienie 1014 hPa
Widzialność 10 km lub więcej
Przerywane chmury na wysokości 1000 ft, Cumulusy wypiętrznone.

METAR: GOOY 122300Z 00000KT 9999 BKN010TCU 25/25 Q1014 RERA

czas: 23:44 (23:44 UTC)

Prognoza

Raport powstał 14 minut temu, godzina 23:30 UTC
Prognoza ważna od 13 godzina 00 UTC do 14 godzina 06 UTC
Wiatr 6 kt od południowo-południowy zachód
Widzialność 10 km lub więcej
Rozproszone chmury na wysokości 1000 ft
Prawdopodobieństwo 30% :
Przejściowo
od 13 godzina 01 UTC do 13 godzina 07 UTC
Widzialność: 4500 m
Przerywane chmury na wysokości 1200 ft
Mało chmury na wysokości 2500 ft, Cumulonimbus.
burza, deszcz

TAF: GOOY 122330Z 1300/1406 20006KT 9999 SCT010 PROB30 TEMPO 1301/1307 4500 TSRA BKN012 FEW025CB

Obserwacja i prognoza pogody dla ponad 4000 lotnisk (raport METAR i TAF).

Dostępne stacje oznaczono żółtymi i czerwonymi punktami na mapie.

Najedź kursorem aby zobaczyć nazwę stacji.

Kliknij aby zobaczyć obserwacje i prognozy pogody.

Aby zmienić mapę: kliknij na zielony przycisk z czarnym krzyżykiem, aby powiększyć; na zielony przycisk z myślnikiem, aby pomniejszyć; na zielone strzałki, aby przejść do map sąsiednich.


METAR-TAF: